sensor_id;sensor_type;location;lat;lon;timestamp;P1;durP1;ratioP1;P2;durP2;ratioP2
48042;SDS011;33988;47.992;8.820;2023-12-29T00:01:05;8.98;;;6.00;;
48042;SDS011;33988;47.992;8.820;2023-12-29T00:03:37;7.28;;;5.28;;
48042;SDS011;33988;47.992;8.820;2023-12-29T00:06:04;8.75;;;5.57;;
48042;SDS011;33988;47.992;8.820;2023-12-29T00:08:32;8.43;;;6.00;;
48042;SDS011;33988;47.992;8.820;2023-12-29T00:11:01;12.13;;;6.72;;
48042;SDS011;33988;47.992;8.820;2023-12-29T00:16:00;8.00;;;5.57;;
48042;SDS011;33988;47.992;8.820;2023-12-29T00:18:26;8.75;;;6.28;;
48042;SDS011;33988;47.992;8.820;2023-12-29T00:20:56;9.68;;;6.53;;
48042;SDS011;33988;47.992;8.820;2023-12-29T00:23:33;8.02;;;5.82;;
48042;SDS011;33988;47.992;8.820;2023-12-29T00:26:02;8.75;;;5.32;;
48042;SDS011;33988;47.992;8.820;2023-12-29T00:28:29;6.90;;;5.15;;
48042;SDS011;33988;47.992;8.820;2023-12-29T00:30:56;7.95;;;5.28;;
48042;SDS011;33988;47.992;8.820;2023-12-29T00:33:29;7.60;;;5.78;;
48042;SDS011;33988;47.992;8.820;2023-12-29T00:36:00;8.43;;;5.50;;
48042;SDS011;33988;47.992;8.820;2023-12-29T00:38:30;7.70;;;5.57;;
48042;SDS011;33988;47.992;8.820;2023-12-29T00:41:01;8.77;;;5.95;;
48042;SDS011;33988;47.992;8.820;2023-12-29T00:43:28;8.27;;;6.20;;
48042;SDS011;33988;47.992;8.820;2023-12-29T00:45:57;8.50;;;5.90;;
48042;SDS011;33988;47.992;8.820;2023-12-29T00:48:24;8.27;;;6.13;;
48042;SDS011;33988;47.992;8.820;2023-12-29T00:50:52;7.60;;;5.75;;
48042;SDS011;33988;47.992;8.820;2023-12-29T00:53:18;11.10;;;6.45;;
48042;SDS011;33988;47.992;8.820;2023-12-29T00:55:45;7.97;;;5.82;;
48042;SDS011;33988;47.992;8.820;2023-12-29T00:58:12;8.18;;;5.70;;
48042;SDS011;33988;47.992;8.820;2023-12-29T01:00:39;9.50;;;5.70;;
48042;SDS011;33988;47.992;8.820;2023-12-29T01:03:10;7.25;;;5.50;;
48042;SDS011;33988;47.992;8.820;2023-12-29T01:05:37;7.32;;;5.25;;
48042;SDS011;33988;47.992;8.820;2023-12-29T01:08:08;6.82;;;5.18;;
48042;SDS011;33988;47.992;8.820;2023-12-29T01:10:35;7.30;;;5.68;;
48042;SDS011;33988;47.992;8.820;2023-12-29T01:13:02;7.88;;;5.22;;
48042;SDS011;33988;47.992;8.820;2023-12-29T01:15:30;8.02;;;5.22;;
48042;SDS011;33988;47.992;8.820;2023-12-29T01:17:56;6.30;;;4.97;;
48042;SDS011;33988;47.992;8.820;2023-12-29T01:20:24;8.13;;;4.95;;
48042;SDS011;33988;47.992;8.820;2023-12-29T01:22:53;7.65;;;4.70;;
48042;SDS011;33988;47.992;8.820;2023-12-29T01:25:20;7.10;;;5.05;;
48042;SDS011;33988;47.992;8.820;2023-12-29T01:27:50;7.93;;;5.85;;
48042;SDS011;33988;47.992;8.820;2023-12-29T01:30:20;7.15;;;5.28;;
48042;SDS011;33988;47.992;8.820;2023-12-29T01:32:50;5.90;;;4.53;;
48042;SDS011;33988;47.992;8.820;2023-12-29T01:37:48;5.45;;;3.80;;
48042;SDS011;33988;47.992;8.820;2023-12-29T01:40:15;6.47;;;4.80;;
48042;SDS011;33988;47.992;8.820;2023-12-29T01:42:43;6.45;;;4.60;;
48042;SDS011;33988;47.992;8.820;2023-12-29T01:45:15;6.75;;;4.40;;
48042;SDS011;33988;47.992;8.820;2023-12-29T01:47:50;6.53;;;4.45;;
48042;SDS011;33988;47.992;8.820;2023-12-29T01:50:18;5.97;;;4.75;;
48042;SDS011;33988;47.992;8.820;2023-12-29T01:52:48;6.72;;;4.80;;
48042;SDS011;33988;47.992;8.820;2023-12-29T01:55:18;7.88;;;5.05;;
48042;SDS011;33988;47.992;8.820;2023-12-29T01:57:48;6.57;;;4.95;;
48042;SDS011;33988;47.992;8.820;2023-12-29T02:00:20;6.30;;;4.72;;
48042;SDS011;33988;47.992;8.820;2023-12-29T02:02:49;7.85;;;4.88;;
48042;SDS011;33988;47.992;8.820;2023-12-29T02:05:17;7.32;;;5.13;;
48042;SDS011;33988;47.992;8.820;2023-12-29T02:07:46;7.53;;;4.85;;
48042;SDS011;33988;47.992;8.820;2023-12-29T02:10:18;7.82;;;5.18;;
48042;SDS011;33988;47.992;8.820;2023-12-29T02:12:46;7.70;;;5.72;;
48042;SDS011;33988;47.992;8.820;2023-12-29T02:15:15;7.32;;;5.32;;
48042;SDS011;33988;47.992;8.820;2023-12-29T02:17:48;7.32;;;4.82;;
48042;SDS011;33988;47.992;8.820;2023-12-29T02:20:26;7.85;;;4.90;;
48042;SDS011;33988;47.992;8.820;2023-12-29T02:22:53;8.02;;;5.03;;
48042;SDS011;33988;47.992;8.820;2023-12-29T02:25:20;6.97;;;4.80;;
48042;SDS011;33988;47.992;8.820;2023-12-29T02:33:26;6.10;;;4.60;;
48042;SDS011;33988;47.992;8.820;2023-12-29T02:35:56;5.85;;;4.40;;
48042;SDS011;33988;47.992;8.820;2023-12-29T02:38:26;5.40;;;4.30;;
48042;SDS011;33988;47.992;8.820;2023-12-29T02:40:57;5.95;;;4.20;;
48042;SDS011;33988;47.992;8.820;2023-12-29T02:43:25;6.45;;;4.30;;
48042;SDS011;33988;47.992;8.820;2023-12-29T02:45:54;6.25;;;4.65;;
48042;SDS011;33988;47.992;8.820;2023-12-29T02:48:21;4.88;;;3.95;;
48042;SDS011;33988;47.992;8.820;2023-12-29T02:50:48;5.88;;;4.28;;
48042;SDS011;33988;47.992;8.820;2023-12-29T02:53:15;5.22;;;4.13;;
48042;SDS011;33988;47.992;8.820;2023-12-29T02:55:42;8.05;;;4.50;;
48042;SDS011;33988;47.992;8.820;2023-12-29T02:58:09;6.38;;;4.47;;
48042;SDS011;33988;47.992;8.820;2023-12-29T03:00:36;5.43;;;3.97;;
48042;SDS011;33988;47.992;8.820;2023-12-29T03:03:08;5.43;;;4.40;;
48042;SDS011;33988;47.992;8.820;2023-12-29T03:05:35;5.75;;;4.32;;
48042;SDS011;33988;47.992;8.820;2023-12-29T03:08:02;6.82;;;4.15;;
48042;SDS011;33988;47.992;8.820;2023-12-29T03:10:29;5.93;;;3.95;;
48042;SDS011;33988;47.992;8.820;2023-12-29T03:12:59;6.25;;;4.38;;
48042;SDS011;33988;47.992;8.820;2023-12-29T03:15:30;5.83;;;3.93;;
48042;SDS011;33988;47.992;8.820;2023-12-29T03:17:58;5.32;;;3.65;;
48042;SDS011;33988;47.992;8.820;2023-12-29T03:20:27;5.65;;;4.13;;
48042;SDS011;33988;47.992;8.820;2023-12-29T03:22:54;5.85;;;3.85;;
48042;SDS011;33988;47.992;8.820;2023-12-29T03:25:26;5.80;;;4.18;;
48042;SDS011;33988;47.992;8.820;2023-12-29T03:27:55;5.57;;;3.78;;
48042;SDS011;33988;47.992;8.820;2023-12-29T03:30:23;5.00;;;3.65;;
48042;SDS011;33988;47.992;8.820;2023-12-29T03:32:50;5.35;;;3.80;;
48042;SDS011;33988;47.992;8.820;2023-12-29T03:35:19;4.35;;;3.50;;
48042;SDS011;33988;47.992;8.820;2023-12-29T03:37:46;5.00;;;3.65;;
48042;SDS011;33988;47.992;8.820;2023-12-29T03:40:15;4.55;;;3.67;;
48042;SDS011;33988;47.992;8.820;2023-12-29T03:42:42;4.80;;;3.33;;
48042;SDS011;33988;47.992;8.820;2023-12-29T03:45:09;5.13;;;3.35;;
48042;SDS011;33988;47.992;8.820;2023-12-29T03:47:36;4.07;;;2.88;;
48042;SDS011;33988;47.992;8.820;2023-12-29T03:50:03;3.95;;;2.72;;
48042;SDS011;33988;47.992;8.820;2023-12-29T03:52:31;5.28;;;2.53;;
48042;SDS011;33988;47.992;8.820;2023-12-29T03:54:58;3.42;;;2.72;;
48042;SDS011;33988;47.992;8.820;2023-12-29T03:57:27;3.90;;;2.72;;
48042;SDS011;33988;47.992;8.820;2023-12-29T03:59:56;3.80;;;2.28;;
48042;SDS011;33988;47.992;8.820;2023-12-29T04:02:25;2.92;;;2.42;;
48042;SDS011;33988;47.992;8.820;2023-12-29T04:04:52;4.43;;;2.40;;
48042;SDS011;33988;47.992;8.820;2023-12-29T04:07:22;4.53;;;2.42;;
48042;SDS011;33988;47.992;8.820;2023-12-29T04:09:49;2.33;;;2.00;;
48042;SDS011;33988;47.992;8.820;2023-12-29T04:12:16;2.95;;;2.22;;
48042;SDS011;33988;47.992;8.820;2023-12-29T04:14:43;2.20;;;1.80;;
48042;SDS011;33988;47.992;8.820;2023-12-29T04:17:10;2.38;;;1.98;;
48042;SDS011;33988;47.992;8.820;2023-12-29T04:19:40;3.72;;;2.35;;
48042;SDS011;33988;47.992;8.820;2023-12-29T04:22:10;2.42;;;2.00;;
48042;SDS011;33988;47.992;8.820;2023-12-29T04:24:39;3.10;;;2.20;;
48042;SDS011;33988;47.992;8.820;2023-12-29T04:27:06;2.42;;;2.10;;
48042;SDS011;33988;47.992;8.820;2023-12-29T04:29:36;4.18;;;2.10;;
48042;SDS011;33988;47.992;8.820;2023-12-29T04:32:05;2.08;;;1.80;;
48042;SDS011;33988;47.992;8.820;2023-12-29T04:34:32;2.97;;;2.20;;
48042;SDS011;33988;47.992;8.820;2023-12-29T04:37:00;3.53;;;2.08;;
48042;SDS011;33988;47.992;8.820;2023-12-29T04:39:29;2.05;;;1.80;;
48042;SDS011;33988;47.992;8.820;2023-12-29T04:41:56;2.17;;;1.98;;
48042;SDS011;33988;47.992;8.820;2023-12-29T04:44:23;2.83;;;2.10;;
48042;SDS011;33988;47.992;8.820;2023-12-29T04:46:52;3.78;;;2.47;;
48042;SDS011;33988;47.992;8.820;2023-12-29T04:49:21;4.75;;;2.40;;
48042;SDS011;33988;47.992;8.820;2023-12-29T04:51:48;3.15;;;2.30;;
48042;SDS011;33988;47.992;8.820;2023-12-29T04:54:15;2.83;;;2.25;;
48042;SDS011;33988;47.992;8.820;2023-12-29T04:56:42;2.58;;;2.22;;
48042;SDS011;33988;47.992;8.820;2023-12-29T04:59:09;2.60;;;2.20;;
48042;SDS011;33988;47.992;8.820;2023-12-29T05:01:38;2.75;;;2.17;;
48042;SDS011;33988;47.992;8.820;2023-12-29T05:04:05;3.53;;;1.88;;
48042;SDS011;33988;47.992;8.820;2023-12-29T05:06:32;2.55;;;2.15;;
48042;SDS011;33988;47.992;8.820;2023-12-29T05:08:59;2.28;;;1.92;;
48042;SDS011;33988;47.992;8.820;2023-12-29T05:11:26;3.40;;;2.30;;
48042;SDS011;33988;47.992;8.820;2023-12-29T05:13:54;2.30;;;2.10;;
48042;SDS011;33988;47.992;8.820;2023-12-29T05:16:21;3.50;;;2.30;;
48042;SDS011;33988;47.992;8.820;2023-12-29T05:18:47;3.42;;;2.30;;
48042;SDS011;33988;47.992;8.820;2023-12-29T05:21:17;2.92;;;2.28;;
48042;SDS011;33988;47.992;8.820;2023-12-29T05:23:45;2.40;;;1.92;;
48042;SDS011;33988;47.992;8.820;2023-12-29T05:26:12;3.92;;;2.15;;
48042;SDS011;33988;47.992;8.820;2023-12-29T05:28:41;2.72;;;1.85;;
48042;SDS011;33988;47.992;8.820;2023-12-29T05:31:13;2.88;;;2.05;;
48042;SDS011;33988;47.992;8.820;2023-12-29T05:33:43;3.83;;;2.10;;
48042;SDS011;33988;47.992;8.820;2023-12-29T05:36:11;3.33;;;2.28;;
48042;SDS011;33988;47.992;8.820;2023-12-29T05:38:38;3.28;;;2.20;;
48042;SDS011;33988;47.992;8.820;2023-12-29T05:41:07;3.45;;;1.95;;
48042;SDS011;33988;47.992;8.820;2023-12-29T05:43:34;2.65;;;1.80;;
48042;SDS011;33988;47.992;8.820;2023-12-29T05:46:01;1.95;;;1.80;;
48042;SDS011;33988;47.992;8.820;2023-12-29T05:48:30;2.50;;;1.98;;
48042;SDS011;33988;47.992;8.820;2023-12-29T05:51:02;2.22;;;2.00;;
48042;SDS011;33988;47.992;8.820;2023-12-29T05:53:40;2.47;;;1.77;;
48042;SDS011;33988;47.992;8.820;2023-12-29T05:56:11;2.80;;;2.00;;
48042;SDS011;33988;47.992;8.820;2023-12-29T05:58:42;2.70;;;1.77;;
48042;SDS011;33988;47.992;8.820;2023-12-29T06:01:11;1.80;;;1.70;;
48042;SDS011;33988;47.992;8.820;2023-12-29T06:03:39;2.85;;;1.83;;
48042;SDS011;33988;47.992;8.820;2023-12-29T06:06:08;2.00;;;1.80;;
48042;SDS011;33988;47.992;8.820;2023-12-29T06:08:35;1.77;;;1.50;;
48042;SDS011;33988;47.992;8.820;2023-12-29T06:11:04;2.38;;;1.80;;
48042;SDS011;33988;47.992;8.820;2023-12-29T06:13:34;2.45;;;1.95;;
48042;SDS011;33988;47.992;8.820;2023-12-29T06:16:03;2.00;;;1.63;;
48042;SDS011;33988;47.992;8.820;2023-12-29T06:18:33;2.05;;;1.88;;
48042;SDS011;33988;47.992;8.820;2023-12-29T06:21:03;2.25;;;1.90;;
48042;SDS011;33988;47.992;8.820;2023-12-29T06:23:33;2.92;;;2.03;;
48042;SDS011;33988;47.992;8.820;2023-12-29T06:26:00;3.10;;;2.40;;
48042;SDS011;33988;47.992;8.820;2023-12-29T06:28:30;3.05;;;2.15;;
48042;SDS011;33988;47.992;8.820;2023-12-29T06:30:59;3.78;;;2.15;;
48042;SDS011;33988;47.992;8.820;2023-12-29T06:33:26;2.88;;;2.28;;
48042;SDS011;33988;47.992;8.820;2023-12-29T06:35:55;3.42;;;2.10;;
48042;SDS011;33988;47.992;8.820;2023-12-29T06:38:24;2.65;;;1.98;;
48042;SDS011;33988;47.992;8.820;2023-12-29T06:40:51;3.40;;;2.20;;
48042;SDS011;33988;47.992;8.820;2023-12-29T06:43:21;3.45;;;2.47;;
48042;SDS011;33988;47.992;8.820;2023-12-29T06:45:48;3.75;;;2.63;;
48042;SDS011;33988;47.992;8.820;2023-12-29T06:48:15;3.55;;;2.55;;
48042;SDS011;33988;47.992;8.820;2023-12-29T06:50:43;4.88;;;2.70;;
48042;SDS011;33988;47.992;8.820;2023-12-29T06:53:11;3.58;;;2.30;;
48042;SDS011;33988;47.992;8.820;2023-12-29T06:55:38;3.05;;;2.40;;
48042;SDS011;33988;47.992;8.820;2023-12-29T06:58:05;3.45;;;2.60;;
48042;SDS011;33988;47.992;8.820;2023-12-29T07:00:33;2.17;;;1.98;;
48042;SDS011;33988;47.992;8.820;2023-12-29T07:03:00;3.55;;;2.60;;
48042;SDS011;33988;47.992;8.820;2023-12-29T07:05:27;4.53;;;2.53;;
48042;SDS011;33988;47.992;8.820;2023-12-29T07:07:57;3.67;;;2.58;;
48042;SDS011;33988;47.992;8.820;2023-12-29T07:10:24;3.67;;;2.60;;
48042;SDS011;33988;47.992;8.820;2023-12-29T07:12:51;3.13;;;2.60;;
48042;SDS011;33988;47.992;8.820;2023-12-29T07:15:18;3.72;;;2.50;;
48042;SDS011;33988;47.992;8.820;2023-12-29T07:17:47;4.05;;;3.03;;
48042;SDS011;33988;47.992;8.820;2023-12-29T07:20:15;3.20;;;2.90;;
48042;SDS011;33988;47.992;8.820;2023-12-29T07:22:43;5.53;;;3.63;;
48042;SDS011;33988;47.992;8.820;2023-12-29T07:25:10;4.78;;;3.67;;
48042;SDS011;33988;47.992;8.820;2023-12-29T07:27:37;3.85;;;3.40;;
48042;SDS011;33988;47.992;8.820;2023-12-29T07:30:07;5.40;;;4.00;;
48042;SDS011;33988;47.992;8.820;2023-12-29T07:32:37;5.43;;;3.90;;
48042;SDS011;33988;47.992;8.820;2023-12-29T07:35:12;6.80;;;3.70;;
48042;SDS011;33988;47.992;8.820;2023-12-29T07:37:46;5.10;;;4.18;;
48042;SDS011;33988;47.992;8.820;2023-12-29T07:40:13;5.82;;;4.22;;
48042;SDS011;33988;47.992;8.820;2023-12-29T07:42:41;5.30;;;4.38;;
48042;SDS011;33988;47.992;8.820;2023-12-29T07:45:09;7.13;;;5.07;;
48042;SDS011;33988;47.992;8.820;2023-12-29T07:47:36;7.03;;;5.32;;
48042;SDS011;33988;47.992;8.820;2023-12-29T07:50:04;6.15;;;5.03;;
48042;SDS011;33988;47.992;8.820;2023-12-29T07:52:35;5.35;;;4.45;;
48042;SDS011;33988;47.992;8.820;2023-12-29T07:55:02;5.20;;;3.80;;
48042;SDS011;33988;47.992;8.820;2023-12-29T07:57:34;4.70;;;4.05;;
48042;SDS011;33988;47.992;8.820;2023-12-29T08:00:01;4.53;;;3.75;;
48042;SDS011;33988;47.992;8.820;2023-12-29T08:04:59;4.25;;;3.58;;
48042;SDS011;33988;47.992;8.820;2023-12-29T08:07:26;4.25;;;3.70;;
48042;SDS011;33988;47.992;8.820;2023-12-29T08:09:53;5.40;;;3.92;;
48042;SDS011;33988;47.992;8.820;2023-12-29T08:12:20;5.22;;;4.10;;
48042;SDS011;33988;47.992;8.820;2023-12-29T08:14:47;4.88;;;4.38;;
48042;SDS011;33988;47.992;8.820;2023-12-29T08:17:16;4.88;;;3.97;;
48042;SDS011;33988;47.992;8.820;2023-12-29T08:19:45;5.05;;;4.50;;
48042;SDS011;33988;47.992;8.820;2023-12-29T08:22:12;4.18;;;3.70;;
48042;SDS011;33988;47.992;8.820;2023-12-29T08:24:42;5.22;;;3.83;;
48042;SDS011;33988;47.992;8.820;2023-12-29T08:27:12;3.80;;;3.10;;
48042;SDS011;33988;47.992;8.820;2023-12-29T08:29:40;4.25;;;3.25;;
48042;SDS011;33988;47.992;8.820;2023-12-29T08:32:09;4.63;;;3.90;;
48042;SDS011;33988;47.992;8.820;2023-12-29T08:34:41;5.70;;;4.68;;
48042;SDS011;33988;47.992;8.820;2023-12-29T08:37:08;4.80;;;4.28;;
48042;SDS011;33988;47.992;8.820;2023-12-29T08:39:35;5.05;;;4.43;;
48042;SDS011;33988;47.992;8.820;2023-12-29T08:42:04;5.10;;;4.07;;
48042;SDS011;33988;47.992;8.820;2023-12-29T08:44:32;5.80;;;4.40;;
48042;SDS011;33988;47.992;8.820;2023-12-29T08:46:59;5.82;;;4.38;;
48042;SDS011;33988;47.992;8.820;2023-12-29T08:49:29;5.03;;;3.75;;
48042;SDS011;33988;47.992;8.820;2023-12-29T08:52:00;4.10;;;3.70;;
48042;SDS011;33988;47.992;8.820;2023-12-29T08:54:27;4.97;;;3.78;;
48042;SDS011;33988;47.992;8.820;2023-12-29T08:56:54;5.20;;;3.72;;
48042;SDS011;33988;47.992;8.820;2023-12-29T08:59:24;5.60;;;5.03;;
48042;SDS011;33988;47.992;8.820;2023-12-29T09:01:51;5.90;;;4.15;;
48042;SDS011;33988;47.992;8.820;2023-12-29T09:04:20;5.43;;;3.67;;
48042;SDS011;33988;47.992;8.820;2023-12-29T09:06:47;5.25;;;4.25;;
48042;SDS011;33988;47.992;8.820;2023-12-29T09:09:14;4.32;;;3.70;;
48042;SDS011;33988;47.992;8.820;2023-12-29T09:11:43;4.68;;;3.70;;
48042;SDS011;33988;47.992;8.820;2023-12-29T09:14:11;4.90;;;3.90;;
48042;SDS011;33988;47.992;8.820;2023-12-29T09:19:12;7.20;;;5.10;;
48042;SDS011;33988;47.992;8.820;2023-12-29T09:21:56;6.55;;;4.82;;
48042;SDS011;33988;47.992;8.820;2023-12-29T09:24:23;9.55;;;6.55;;
48042;SDS011;33988;47.992;8.820;2023-12-29T09:26:50;9.05;;;5.45;;
48042;SDS011;33988;47.992;8.820;2023-12-29T09:29:20;8.15;;;5.65;;
48042;SDS011;33988;47.992;8.820;2023-12-29T09:31:47;7.60;;;4.90;;
48042;SDS011;33988;47.992;8.820;2023-12-29T09:34:17;4.68;;;3.95;;
48042;SDS011;33988;47.992;8.820;2023-12-29T09:36:47;5.38;;;3.88;;
48042;SDS011;33988;47.992;8.820;2023-12-29T09:39:14;4.55;;;3.78;;
48042;SDS011;33988;47.992;8.820;2023-12-29T09:41:42;4.40;;;4.00;;
48042;SDS011;33988;47.992;8.820;2023-12-29T09:44:14;5.43;;;3.92;;
48042;SDS011;33988;47.992;8.820;2023-12-29T09:46:44;4.82;;;3.90;;
48042;SDS011;33988;47.992;8.820;2023-12-29T09:49:19;3.47;;;3.13;;
48042;SDS011;33988;47.992;8.820;2023-12-29T09:51:50;5.25;;;4.20;;
48042;SDS011;33988;47.992;8.820;2023-12-29T09:54:17;4.40;;;3.75;;
48042;SDS011;33988;47.992;8.820;2023-12-29T09:56:44;7.05;;;4.85;;
48042;SDS011;33988;47.992;8.820;2023-12-29T09:59:18;5.30;;;4.38;;
48042;SDS011;33988;47.992;8.820;2023-12-29T10:01:45;5.40;;;4.78;;
48042;SDS011;33988;47.992;8.820;2023-12-29T10:04:13;5.65;;;4.65;;
48042;SDS011;33988;47.992;8.820;2023-12-29T10:06:43;7.35;;;5.88;;
48042;SDS011;33988;47.992;8.820;2023-12-29T10:09:15;6.03;;;4.90;;
48042;SDS011;33988;47.992;8.820;2023-12-29T10:11:48;9.40;;;6.20;;
48042;SDS011;33988;47.992;8.820;2023-12-29T10:14:23;8.40;;;5.85;;
48042;SDS011;33988;47.992;8.820;2023-12-29T10:17:05;6.25;;;5.30;;
48042;SDS011;33988;47.992;8.820;2023-12-29T10:25:33;4.35;;;3.17;;
48042;SDS011;33988;47.992;8.820;2023-12-29T10:28:03;5.25;;;3.30;;
48042;SDS011;33988;47.992;8.820;2023-12-29T10:30:35;5.82;;;4.50;;
48042;SDS011;33988;47.992;8.820;2023-12-29T10:33:04;7.13;;;4.60;;
48042;SDS011;33988;47.992;8.820;2023-12-29T10:35:35;7.55;;;5.32;;
48042;SDS011;33988;47.992;8.820;2023-12-29T10:38:11;4.63;;;3.70;;
48042;SDS011;33988;47.992;8.820;2023-12-29T10:40:40;5.85;;;4.55;;
48042;SDS011;33988;47.992;8.820;2023-12-29T10:43:09;11.98;;;4.88;;
48042;SDS011;33988;47.992;8.820;2023-12-29T10:45:36;5.20;;;4.53;;
48042;SDS011;33988;47.992;8.820;2023-12-29T10:48:04;5.30;;;3.88;;
48042;SDS011;33988;47.992;8.820;2023-12-29T10:50:42;5.10;;;4.00;;
48042;SDS011;33988;47.992;8.820;2023-12-29T10:53:14;5.80;;;4.25;;
48042;SDS011;33988;47.992;8.820;2023-12-29T10:55:45;6.57;;;4.65;;
48042;SDS011;33988;47.992;8.820;2023-12-29T10:58:12;5.28;;;4.30;;
48042;SDS011;33988;47.992;8.820;2023-12-29T11:00:44;5.82;;;4.13;;
48042;SDS011;33988;47.992;8.820;2023-12-29T11:03:17;6.65;;;4.15;;
48042;SDS011;33988;47.992;8.820;2023-12-29T11:05:49;5.55;;;4.18;;
48042;SDS011;33988;47.992;8.820;2023-12-29T11:08:20;4.93;;;4.25;;
48042;SDS011;33988;47.992;8.820;2023-12-29T11:10:50;5.60;;;4.80;;
48042;SDS011;33988;47.992;8.820;2023-12-29T11:13:17;4.82;;;4.00;;
48042;SDS011;33988;47.992;8.820;2023-12-29T11:15:48;4.25;;;3.60;;
48042;SDS011;33988;47.992;8.820;2023-12-29T11:18:16;4.13;;;3.42;;
48042;SDS011;33988;47.992;8.820;2023-12-29T11:20:44;5.03;;;2.90;;
48042;SDS011;33988;47.992;8.820;2023-12-29T11:23:15;3.63;;;2.58;;
48042;SDS011;33988;47.992;8.820;2023-12-29T11:25:46;3.25;;;2.50;;
48042;SDS011;33988;47.992;8.820;2023-12-29T11:28:16;2.85;;;2.30;;
48042;SDS011;33988;47.992;8.820;2023-12-29T11:30:45;2.40;;;2.15;;
48042;SDS011;33988;47.992;8.820;2023-12-29T11:33:15;2.63;;;1.80;;
48042;SDS011;33988;47.992;8.820;2023-12-29T11:35:54;2.22;;;2.03;;
48042;SDS011;33988;47.992;8.820;2023-12-29T11:38:47;3.33;;;2.00;;
48042;SDS011;33988;47.992;8.820;2023-12-29T11:41:34;2.58;;;2.00;;
48042;SDS011;33988;47.992;8.820;2023-12-29T11:44:35;2.58;;;1.83;;
48042;SDS011;33988;47.992;8.820;2023-12-29T11:47:02;2.15;;;1.83;;
48042;SDS011;33988;47.992;8.820;2023-12-29T11:52:34;2.35;;;1.80;;
48042;SDS011;33988;47.992;8.820;2023-12-29T11:55:10;1.60;;;1.50;;
48042;SDS011;33988;47.992;8.820;2023-12-29T11:57:49;2.63;;;1.58;;
48042;SDS011;33988;47.992;8.820;2023-12-29T12:00:19;1.83;;;1.55;;
48042;SDS011;33988;47.992;8.820;2023-12-29T12:02:49;2.40;;;1.70;;
48042;SDS011;33988;47.992;8.820;2023-12-29T12:08:41;2.22;;;1.70;;
48042;SDS011;33988;47.992;8.820;2023-12-29T12:11:54;2.10;;;1.90;;
48042;SDS011;33988;47.992;8.820;2023-12-29T12:13:57;2.33;;;1.77;;
48042;SDS011;33988;47.992;8.820;2023-12-29T12:19:15;2.33;;;2.10;;
48042;SDS011;33988;47.992;8.820;2023-12-29T12:21:47;5.30;;;2.00;;
48042;SDS011;33988;47.992;8.820;2023-12-29T12:24:18;2.05;;;1.85;;
48042;SDS011;33988;47.992;8.820;2023-12-29T12:29:16;2.55;;;1.95;;
48042;SDS011;33988;47.992;8.820;2023-12-29T12:31:55;2.10;;;1.65;;
48042;SDS011;33988;47.992;8.820;2023-12-29T12:34:25;2.65;;;2.10;;
48042;SDS011;33988;47.992;8.820;2023-12-29T12:37:04;2.08;;;1.88;;
48042;SDS011;33988;47.992;8.820;2023-12-29T12:39:40;2.13;;;1.80;;
48042;SDS011;33988;47.992;8.820;2023-12-29T12:42:10;2.38;;;1.80;;
48042;SDS011;33988;47.992;8.820;2023-12-29T12:44:40;2.13;;;1.92;;
48042;SDS011;33988;47.992;8.820;2023-12-29T12:47:14;1.88;;;1.67;;
48042;SDS011;33988;47.992;8.820;2023-12-29T12:49:45;2.15;;;1.92;;
48042;SDS011;33988;47.992;8.820;2023-12-29T12:52:13;1.63;;;1.45;;
48042;SDS011;33988;47.992;8.820;2023-12-29T12:54:42;1.75;;;1.58;;
48042;SDS011;33988;47.992;8.820;2023-12-29T12:57:12;1.58;;;1.48;;
48042;SDS011;33988;47.992;8.820;2023-12-29T12:59:44;2.05;;;1.52;;
48042;SDS011;33988;47.992;8.820;2023-12-29T13:02:15;2.25;;;1.60;;
48042;SDS011;33988;47.992;8.820;2023-12-29T13:04:47;2.90;;;1.55;;
48042;SDS011;33988;47.992;8.820;2023-12-29T13:07:15;2.17;;;1.50;;
48042;SDS011;33988;47.992;8.820;2023-12-29T13:09:49;1.88;;;1.48;;
48042;SDS011;33988;47.992;8.820;2023-12-29T13:12:18;3.42;;;1.90;;
48042;SDS011;33988;47.992;8.820;2023-12-29T13:14:45;2.17;;;1.50;;
48042;SDS011;33988;47.992;8.820;2023-12-29T13:17:13;1.50;;;1.40;;
48042;SDS011;33988;47.992;8.820;2023-12-29T13:19:55;2.08;;;1.50;;
48042;SDS011;33988;47.992;8.820;2023-12-29T13:22:25;1.40;;;1.20;;
48042;SDS011;33988;47.992;8.820;2023-12-29T13:24:55;2.00;;;1.70;;
48042;SDS011;33988;47.992;8.820;2023-12-29T13:27:22;2.35;;;1.65;;
48042;SDS011;33988;47.992;8.820;2023-12-29T13:29:51;1.65;;;1.42;;
48042;SDS011;33988;47.992;8.820;2023-12-29T13:32:19;3.00;;;1.98;;
48042;SDS011;33988;47.992;8.820;2023-12-29T13:34:55;2.40;;;1.50;;
48042;SDS011;33988;47.992;8.820;2023-12-29T13:37:36;4.13;;;1.33;;
48042;SDS011;33988;47.992;8.820;2023-12-29T13:42:55;3.55;;;2.83;;
48042;SDS011;33988;47.992;8.820;2023-12-29T13:45:27;3.47;;;2.10;;
48042;SDS011;33988;47.992;8.820;2023-12-29T13:47:55;3.95;;;2.13;;
48042;SDS011;33988;47.992;8.820;2023-12-29T13:50:23;2.10;;;1.80;;
48042;SDS011;33988;47.992;8.820;2023-12-29T13:52:51;2.45;;;1.63;;
48042;SDS011;33988;47.992;8.820;2023-12-29T13:55:24;3.70;;;1.90;;
48042;SDS011;33988;47.992;8.820;2023-12-29T13:57:53;3.17;;;2.05;;
48042;SDS011;33988;47.992;8.820;2023-12-29T14:00:26;2.80;;;1.83;;
48042;SDS011;33988;47.992;8.820;2023-12-29T14:08:10;2.05;;;1.50;;
48042;SDS011;33988;47.992;8.820;2023-12-29T14:10:49;2.38;;;1.70;;
48042;SDS011;33988;47.992;8.820;2023-12-29T14:13:17;2.65;;;1.13;;
48042;SDS011;33988;47.992;8.820;2023-12-29T14:15:47;1.63;;;1.42;;
48042;SDS011;33988;47.992;8.820;2023-12-29T14:20:49;1.60;;;1.50;;
48042;SDS011;33988;47.992;8.820;2023-12-29T14:23:19;2.25;;;1.40;;
48042;SDS011;33988;47.992;8.820;2023-12-29T14:25:46;1.60;;;1.50;;
48042;SDS011;33988;47.992;8.820;2023-12-29T14:28:19;1.88;;;1.55;;
48042;SDS011;33988;47.992;8.820;2023-12-29T14:30:50;5.57;;;1.75;;
48042;SDS011;33988;47.992;8.820;2023-12-29T14:33:28;2.50;;;1.90;;
48042;SDS011;33988;47.992;8.820;2023-12-29T14:35:56;1.98;;;1.50;;
48042;SDS011;33988;47.992;8.820;2023-12-29T14:38:23;1.60;;;1.50;;
48042;SDS011;33988;47.992;8.820;2023-12-29T14:40:53;2.53;;;1.45;;
48042;SDS011;33988;47.992;8.820;2023-12-29T14:43:19;1.92;;;1.60;;
48042;SDS011;33988;47.992;8.820;2023-12-29T14:45:47;1.98;;;1.73;;
48042;SDS011;33988;47.992;8.820;2023-12-29T14:48:13;1.63;;;1.40;;
48042;SDS011;33988;47.992;8.820;2023-12-29T14:50:41;1.58;;;1.45;;
48042;SDS011;33988;47.992;8.820;2023-12-29T14:53:12;1.88;;;1.67;;
48042;SDS011;33988;47.992;8.820;2023-12-29T14:55:41;2.03;;;1.45;;
48042;SDS011;33988;47.992;8.820;2023-12-29T14:58:08;2.70;;;1.85;;
48042;SDS011;33988;47.992;8.820;2023-12-29T15:00:35;1.98;;;1.75;;
48042;SDS011;33988;47.992;8.820;2023-12-29T15:03:04;2.38;;;1.77;;
48042;SDS011;33988;47.992;8.820;2023-12-29T15:05:31;2.72;;;1.70;;
48042;SDS011;33988;47.992;8.820;2023-12-29T15:07:58;1.63;;;1.52;;
48042;SDS011;33988;47.992;8.820;2023-12-29T15:10:26;3.90;;;1.63;;
48042;SDS011;33988;47.992;8.820;2023-12-29T15:12:53;1.70;;;1.60;;
48042;SDS011;33988;47.992;8.820;2023-12-29T15:15:23;1.40;;;1.30;;
48042;SDS011;33988;47.992;8.820;2023-12-29T15:17:52;3.22;;;2.00;;
48042;SDS011;33988;47.992;8.820;2023-12-29T15:20:19;2.00;;;1.60;;
48042;SDS011;33988;47.992;8.820;2023-12-29T15:22:48;2.20;;;1.73;;
48042;SDS011;33988;47.992;8.820;2023-12-29T15:25:21;2.90;;;1.98;;
48042;SDS011;33988;47.992;8.820;2023-12-29T15:27:52;2.53;;;2.00;;
48042;SDS011;33988;47.992;8.820;2023-12-29T15:30:19;2.70;;;2.17;;
48042;SDS011;33988;47.992;8.820;2023-12-29T15:32:46;4.03;;;2.55;;
48042;SDS011;33988;47.992;8.820;2023-12-29T15:35:15;6.35;;;2.80;;
48042;SDS011;33988;47.992;8.820;2023-12-29T15:37:45;5.15;;;3.00;;
48042;SDS011;33988;47.992;8.820;2023-12-29T15:40:12;6.20;;;3.63;;
48042;SDS011;33988;47.992;8.820;2023-12-29T15:42:42;9.10;;;3.95;;
48042;SDS011;33988;47.992;8.820;2023-12-29T15:45:09;11.65;;;4.93;;